Blue Jay, California
Current Conditions -  °F | °C
As of 12:51 PM on Friday 28 Nov 2014 (Local Time) from KSBD Reporting Station
Clear Clear  
Wind Chill: 81°   Ceiling: Unl
Heat Index: 81°   Visibility: 10mi
Dew Point: 23°   Wind: 8mph
Humidity: 12%   Direction: 280°W
Pressure: 29.94"   Gusts: NA
Location:  34.25°N, 117.21°W
Report Text: KSBD 282051Z 28007KT 10SM SKC 27/M05 A2994
Loading
Personal Weather Stations






























Interactive Weather Map New forecast layout! Learn more

10-Day Weather Forecast

Advertisements
Track Severe Weather on mobile